Time;durP1;ratioP1;P1;durP2;ratioP2;P2;SDS_P1;SDS_P2;PMS_P1;PMS_P2;Temp;Humidity;BMP_temperature;BMP_pressure;BME280_temperature;BME280_humidity;BME280_pressure;Samples;Min_cycle;Max_cycle;Signal;HPM_P1;HPM_P2
2024/03/28 00:00:21;;;;;;;;;;;;;;;;;;5010061;28;19918;-52
2024/03/28 00:02:47;;;;;;;;;;;;;;;;;;5001345;28;20371;-50
2024/03/28 00:05:13;;;;;;;;;;;;;;;;;;4993766;28;19920;-49
2024/03/28 00:07:39;;;;;;;;;;;;;;;;;;4994039;28;19929;-50
2024/03/28 00:10:05;;;;;;;;;;;;;;;;;;5011664;28;20001;-49
2024/03/28 00:12:31;;;;;;;;;;;;;;;;;;5012735;28;20366;-50
2024/03/28 00:14:57;;;;;;;;;;;;;;;;;;5004655;28;20310;-50
2024/03/28 00:17:23;;;;;;;;;;;;;;;;;;4994172;28;19921;-50
2024/03/28 00:19:49;;;;;;;;;;;;;;;;;;5013101;28;20390;-50
2024/03/28 00:22:16;;;;;;;;;;;;;;;;;;5007178;28;20290;-50
2024/03/28 00:24:42;;;;;;;;;;;;;;;;;;4993496;28;20004;-49
2024/03/28 00:27:08;;;;;;;;;;;;;;;;;;4977013;28;19913;-51
2024/03/28 00:29:34;;;;;;;;;;;;;;;;;;5004819;28;19914;-51
2024/03/28 00:32:00;;;;;;;;;;;;;;;;;;5015429;28;19949;-50
2024/03/28 00:34:26;;;;;;;;;;;;;;;;;;4994580;28;19914;-51
2024/03/28 00:36:52;;;;;;;;;;;;;;;;;;5027783;28;19919;-50
2024/03/28 00:39:18;;;;;;;;;;;;;;;;;;5010941;28;19921;-50
2024/03/28 00:41:44;;;;;;;;;;;;;;;;;;5011018;28;19918;-51
2024/03/28 00:44:10;;;;;;;;;;;;;;;;;;4997131;28;19917;-50
2024/03/28 00:46:36;;;;;;;;;;;;;;;;;;5005211;28;19945;-53
2024/03/28 00:49:02;;;;;;;;;;;;;;;;;;5011222;28;20020;-50
2024/03/28 00:51:28;;;;;;;;;;;;;;;;;;4996411;28;19914;-50
2024/03/28 00:53:55;;;;;;;;;;;;;;;;;;4994075;28;20288;-50
2024/03/28 00:56:21;;;;;;;;;;;;;;;;;;5025867;28;20008;-54
2024/03/28 00:58:47;;;;;;;;;;;;;;;;;;4993755;28;19918;-51
2024/03/28 01:01:13;;;;;;;;;;;;;;;;;;5001378;28;19917;-53
2024/03/28 01:03:39;;;;;;;;;;;;;;;;;;5012425;28;19914;-51
2024/03/28 01:06:05;;;;;;;;;;;;;;;;;;5000541;28;19916;-51
2024/03/28 01:08:31;;;;;;;;;;;;;;;;;;5000708;28;19960;-53
2024/03/28 01:10:57;;;;;;;;;;;;;;;;;;5009272;28;19920;-50
2024/03/28 01:13:23;;;;;;;;;;;;;;;;;;4993678;28;19920;-49
2024/03/28 01:15:49;;;;;;;;;;;;;;;;;;4998605;28;19913;-49
2024/03/28 01:18:15;;;;;;;;;;;;;;;;;;5012183;28;20040;-50
2024/03/28 01:20:41;;;;;;;;;;;;;;;;;;5019357;28;19909;-51
2024/03/28 01:23:08;;;;;;;;;;;;;;;;;;5011943;28;20016;-50
2024/03/28 01:25:34;;;;;;;;;;;;;;;;;;5011735;28;19920;-53
2024/03/28 01:28:00;;;;;;;;;;;;;;;;;;5010189;28;20306;-53
2024/03/28 01:30:26;;;;;;;;;;;;;;;;;;5009097;28;20009;-53
2024/03/28 01:32:52;;;;;;;;;;;;;;;;;;4999722;28;19920;-53
2024/03/28 01:35:18;;;;;;;;;;;;;;;;;;5012054;28;19963;-52
2024/03/28 01:37:44;;;;;;;;;;;;;;;;;;4988298;28;19922;-51
2024/03/28 01:40:10;;;;;;;;;;;;;;;;;;5002421;28;19913;-50
2024/03/28 01:42:36;;;;;;;;;;;;;;;;;;5010015;28;19924;-52
2024/03/28 01:45:02;;;;;;;;;;;;;;;;;;5009689;28;20065;-52
2024/03/28 01:47:29;;;;;;;;;;;;;;;;;;4992419;28;19914;-50
2024/03/28 01:49:55;;;;;;;;;;;;;;;;;;4993460;28;19920;-50
2024/03/28 01:52:21;;;;;;;;;;;;;;;;;;4976002;28;20012;-51
2024/03/28 01:54:47;;;;;;;;;;;;;;;;;;4993512;28;20298;-51
2024/03/28 01:57:13;;;;;;;;;;;;;;;;;;4992132;28;19968;-50
2024/03/28 01:59:39;;;;;;;;;;;;;;;;;;4994504;28;20366;-51
2024/03/28 02:02:05;;;;;;;;;;;;;;;;;;5003962;28;20004;-52
2024/03/28 02:04:31;;;;;;;;;;;;;;;;;;4992485;28;20433;-53
2024/03/28 02:06:57;;;;;;;;;;;;;;;;;;5000219;28;20281;-51
2024/03/28 02:09:25;;;;;;;;;;;;;;;;;;5015418;28;19909;-51
2024/03/28 02:11:51;;;;;;;;;;;;;;;;;;5015301;28;19922;-50
2024/03/28 02:14:18;;;;;;;;;;;;;;;;;;5015460;28;19909;-52
2024/03/28 02:16:44;;;;;;;;;;;;;;;;;;5014023;28;19921;-50
2024/03/28 02:19:10;;;;;;;;;;;;;;;;;;5007938;28;20445;-51
2024/03/28 02:21:36;;;;;;;;;;;;;;;;;;4978244;28;19924;-51
2024/03/28 02:24:02;;;;;;;;;;;;;;;;;;4995644;28;19909;-50
2024/03/28 02:26:28;;;;;;;;;;;;;;;;;;4978065;28;19957;-50
2024/03/28 02:28:54;;;;;;;;;;;;;;;;;;4977921;28;19909;-51
2024/03/28 02:31:20;;;;;;;;;;;;;;;;;;4995290;28;20316;-53
2024/03/28 02:33:46;;;;;;;;;;;;;;;;;;4995426;28;20275;-51
2024/03/28 02:36:13;;;;;;;;;;;;;;;;;;4995445;28;19961;-50
2024/03/28 02:38:39;;;;;;;;;;;;;;;;;;4995159;28;19917;-54
2024/03/28 02:41:05;;;;;;;;;;;;;;;;;;4995221;28;20379;-53
2024/03/28 02:43:31;;;;;;;;;;;;;;;;;;4995237;28;19924;-50
2024/03/28 02:45:57;;;;;;;;;;;;;;;;;;4995180;28;20382;-50
2024/03/28 02:48:23;;;;;;;;;;;;;;;;;;4995241;28;20329;-50
2024/03/28 02:50:49;;;;;;;;;;;;;;;;;;4995054;28;19924;-54
2024/03/28 02:53:15;;;;;;;;;;;;;;;;;;4977718;28;20072;-49
2024/03/28 02:55:41;;;;;;;;;;;;;;;;;;5002178;28;19917;-50
2024/03/28 02:58:07;;;;;;;;;;;;;;;;;;5014516;28;19924;-52
2024/03/28 03:00:34;;;;;;;;;;;;;;;;;;5029583;28;20027;-52
2024/03/28 03:03:01;;;;;;;;;;;;;;;;;;5006359;28;19971;-52
2024/03/28 03:05:27;;;;;;;;;;;;;;;;;;5002655;28;19913;-52
2024/03/28 03:07:53;;;;;;;;;;;;;;;;;;4998701;28;19910;-54
2024/03/28 03:10:20;;;;;;;;;;;;;;;;;;4996317;28;19920;-50
2024/03/28 03:12:46;;;;;;;;;;;;;;;;;;5022901;28;19964;-51
2024/03/28 03:15:12;;;;;;;;;;;;;;;;;;5005602;28;20386;-50
2024/03/28 03:17:38;;;;;;;;;;;;;;;;;;4987908;28;19921;-50
2024/03/28 03:20:08;;;;;;;;;;;;;;;;;;5001569;28;19914;-54
2024/03/28 03:22:35;;;;;;;;;;;;;;;;;;5013902;28;20012;-51
2024/03/28 03:25:10;;;;;;;;;;;;;;;;;;5005779;28;19925;-53
2024/03/28 03:34:34;;;;;;;;;;;;;;;;;;4993669;28;20009;-50
2024/03/28 03:35:52;;;;;;;;;;;;;;;;;;4994106;28;19921;-51
2024/03/28 03:38:18;;;;;;;;;;;;;;;;;;5010718;28;20385;-50
2024/03/28 03:40:44;;;;;;;;;;;;;;;;;;5013728;28;19914;-51
2024/03/28 03:43:10;;;;;;;;;;;;;;;;;;5013772;28;19920;-53
2024/03/28 03:45:36;;;;;;;;;;;;;;;;;;5013682;28;19913;-50
2024/03/28 03:48:02;;;;;;;;;;;;;;;;;;5013589;28;20212;-51
2024/03/28 03:50:28;;;;;;;;;;;;;;;;;;5013674;28;19972;-51
2024/03/28 03:52:54;;;;;;;;;;;;;;;;;;5011946;28;20333;-50
2024/03/28 03:55:20;;;;;;;;;;;;;;;;;;5008710;28;20021;-50
2024/03/28 03:57:46;;;;;;;;;;;;;;;;;;4993807;28;19910;-50
2024/03/28 04:00:12;;;;;;;;;;;;;;;;;;4986387;28;19926;-51
2024/03/28 04:02:39;;;;;;;;;;;;;;;;;;5007192;28;19925;-53
2024/03/28 04:05:06;;;;;;;;;;;;;;;;;;4993704;28;19921;-50
2024/03/28 04:07:32;;;;;;;;;;;;;;;;;;4993600;28;19917;-51
2024/03/28 04:09:59;;;;;;;;;;;;;;;;;;4976422;28;20498;-52
2024/03/28 04:12:25;;;;;;;;;;;;;;;;;;4981365;28;20071;-50
2024/03/28 04:14:51;;;;;;;;;;;;;;;;;;5018150;28;20294;-54
2024/03/28 04:17:17;;;;;;;;;;;;;;;;;;4986714;28;20008;-49
2024/03/28 04:19:43;;;;;;;;;;;;;;;;;;4993451;28;20445;-52
2024/03/28 04:22:09;;;;;;;;;;;;;;;;;;5007044;28;19936;-53
2024/03/28 04:24:35;;;;;;;;;;;;;;;;;;5005572;28;19914;-50
2024/03/28 04:27:01;;;;;;;;;;;;;;;;;;4993249;28;19921;-52
2024/03/28 04:29:27;;;;;;;;;;;;;;;;;;4992457;28;20005;-51
2024/03/28 04:31:53;;;;;;;;;;;;;;;;;;5007856;28;19955;-53
2024/03/28 04:34:19;;;;;;;;;;;;;;;;;;5013166;28;20340;-49
2024/03/28 04:36:45;;;;;;;;;;;;;;;;;;5028102;28;19917;-50
2024/03/28 04:39:15;;;;;;;;;;;;;;;;;;5013798;28;20374;-50
2024/03/28 04:41:41;;;;;;;;;;;;;;;;;;4991046;28;20016;-50
2024/03/28 04:44:07;;;;;;;;;;;;;;;;;;5006583;28;19913;-50
2024/03/28 04:46:33;;;;;;;;;;;;;;;;;;5000535;28;19921;-51
2024/03/28 04:48:59;;;;;;;;;;;;;;;;;;4975390;28;20437;-51
2024/03/28 04:51:25;;;;;;;;;;;;;;;;;;4995804;28;20290;-49
2024/03/28 04:53:51;;;;;;;;;;;;;;;;;;5012549;28;19925;-49
2024/03/28 04:56:17;;;;;;;;;;;;;;;;;;5010525;28;20440;-49
2024/03/28 04:58:43;;;;;;;;;;;;;;;;;;5012306;28;20004;-51
2024/03/28 05:01:09;;;;;;;;;;;;;;;;;;5065956;22;20366;-49
2024/03/28 05:03:36;;;;;;;;;;;;;;;;;;5011641;28;19925;-48
2024/03/28 05:06:02;;;;;;;;;;;;;;;;;;5012475;28;19917;-51
2024/03/28 05:08:28;;;;;;;;;;;;;;;;;;5011158;28;19913;-49
2024/03/28 05:10:54;;;;;;;;;;;;;;;;;;5010451;28;19909;-47
2024/03/28 05:13:20;;;;;;;;;;;;;;;;;;5010438;28;19976;-48
2024/03/28 05:15:46;;;;;;;;;;;;;;;;;;5010470;28;19916;-48
2024/03/28 05:18:12;;;;;;;;;;;;;;;;;;5010294;28;20365;-48
2024/03/28 05:20:38;;;;;;;;;;;;;;;;;;5010776;28;19964;-48
2024/03/28 05:23:04;;;;;;;;;;;;;;;;;;5011199;28;19918;-48
2024/03/28 05:25:31;;;;;;;;;;;;;;;;;;5012379;28;19914;-49
2024/03/28 05:27:57;;;;;;;;;;;;;;;;;;4994554;28;20302;-48
2024/03/28 05:30:23;;;;;;;;;;;;;;;;;;4994772;28;20031;-48
2024/03/28 05:32:49;;;;;;;;;;;;;;;;;;5012243;28;20270;-48
2024/03/28 05:35:15;;;;;;;;;;;;;;;;;;5012511;28;20343;-48
2024/03/28 05:37:41;;;;;;;;;;;;;;;;;;5011980;28;19918;-48
2024/03/28 05:40:07;;;;;;;;;;;;;;;;;;5015132;28;19909;-49
2024/03/28 05:42:33;;;;;;;;;;;;;;;;;;5035376;28;20289;-49
2024/03/28 05:44:59;;;;;;;;;;;;;;;;;;5018206;28;19909;-48
2024/03/28 05:47:25;;;;;;;;;;;;;;;;;;5035658;28;19921;-51
2024/03/28 05:49:51;;;;;;;;;;;;;;;;;;5035807;28;19992;-52
2024/03/28 05:52:17;;;;;;;;;;;;;;;;;;5035573;28;20369;-48
2024/03/28 05:54:43;;;;;;;;;;;;;;;;;;5035719;28;19909;-49
2024/03/28 05:57:10;;;;;;;;;;;;;;;;;;5035747;28;19913;-48
2024/03/28 05:59:36;;;;;;;;;;;;;;;;;;5035460;28;19909;-50
2024/03/28 06:02:02;;;;;;;;;;;;;;;;;;5017453;28;20292;-47
2024/03/28 06:04:28;;;;;;;;;;;;;;;;;;5035731;28;20008;-47
2024/03/28 06:06:54;;;;;;;;;;;;;;;;;;5035571;28;19913;-47
2024/03/28 06:09:20;;;;;;;;;;;;;;;;;;5035296;28;19913;-46
2024/03/28 06:11:46;;;;;;;;;;;;;;;;;;5024692;28;19967;-48
2024/03/28 06:14:12;;;;;;;;;;;;;;;;;;5015391;28;20019;-47
2024/03/28 06:16:39;;;;;;;;;;;;;;;;;;5015531;28;20333;-46
2024/03/28 06:19:05;;;;;;;;;;;;;;;;;;5015571;28;19910;-47
2024/03/28 06:21:31;;;;;;;;;;;;;;;;;;5015296;28;19957;-49
2024/03/28 06:23:57;;;;;;;;;;;;;;;;;;5015276;28;19921;-47
2024/03/28 06:26:23;;;;;;;;;;;;;;;;;;5015329;28;20374;-48
2024/03/28 06:28:49;;;;;;;;;;;;;;;;;;5015195;28;19932;-47
2024/03/28 06:31:16;;;;;;;;;;;;;;;;;;5014113;28;19913;-49
2024/03/28 06:33:42;;;;;;;;;;;;;;;;;;5014202;28;20004;-49
2024/03/28 06:36:08;;;;;;;;;;;;;;;;;;5015152;28;19914;-49
2024/03/28 06:38:34;;;;;;;;;;;;;;;;;;5014942;28;19909;-47
2024/03/28 06:41:00;;;;;;;;;;;;;;;;;;5018482;28;20293;-46
2024/03/28 06:43:26;;;;;;;;;;;;;;;;;;5014903;28;20055;-47
2024/03/28 06:45:52;;;;;;;;;;;;;;;;;;5015025;28;19983;-48
2024/03/28 06:48:18;;;;;;;;;;;;;;;;;;5014881;28;19909;-49
2024/03/28 06:50:44;;;;;;;;;;;;;;;;;;5014789;28;19914;-46
2024/03/28 06:53:10;;;;;;;;;;;;;;;;;;5013983;28;19916;-49
2024/03/28 06:55:40;;;;;;;;;;;;;;;;;;5014842;28;19960;-51
2024/03/28 06:58:06;;;;;;;;;;;;;;;;;;4997093;28;20032;-50
2024/03/28 07:00:32;;;;;;;;;;;;;;;;;;5014967;28;19950;-48
2024/03/28 07:02:58;;;;;;;;;;;;;;;;;;4997043;28;19921;-50
2024/03/28 07:05:24;;;;;;;;;;;;;;;;;;5014489;28;19913;-47
2024/03/28 07:07:51;;;;;;;;;;;;;;;;;;5014376;28;19917;-48
2024/03/28 07:10:17;;;;;;;;;;;;;;;;;;4997243;28;19914;-47
2024/03/28 07:12:43;;;;;;;;;;;;;;;;;;5014314;28;19963;-47
2024/03/28 07:15:09;;;;;;;;;;;;;;;;;;5014535;28;20047;-47
2024/03/28 07:17:36;;;;;;;;;;;;;;;;;;5014307;28;19917;-46
2024/03/28 07:20:02;;;;;;;;;;;;;;;;;;5014312;28;19921;-47
2024/03/28 07:22:29;;;;;;;;;;;;;;;;;;5014322;28;19939;-46
2024/03/28 07:24:55;;;;;;;;;;;;;;;;;;5014150;28;19921;-46
2024/03/28 07:27:21;;;;;;;;;;;;;;;;;;5014036;28;19914;-46
2024/03/28 07:29:47;;;;;;;;;;;;;;;;;;4996667;28;19914;-46
2024/03/28 07:32:13;;;;;;;;;;;;;;;;;;5014196;28;19917;-46
2024/03/28 07:34:39;;;;;;;;;;;;;;;;;;5013994;28;20005;-47
2024/03/28 07:37:05;;;;;;;;;;;;;;;;;;5013929;28;19938;-48
2024/03/28 07:39:32;;;;;;;;;;;;;;;;;;5013780;28;19918;-50
2024/03/28 07:41:58;;;;;;;;;;;;;;;;;;5013691;28;19913;-47
2024/03/28 07:44:24;;;;;;;;;;;;;;;;;;5013962;28;20286;-47
2024/03/28 07:46:50;;;;;;;;;;;;;;;;;;5013833;28;19910;-47
2024/03/28 07:49:16;;;;;;;;;;;;;;;;;;5013581;28;19936;-47
2024/03/28 07:51:42;;;;;;;;;;;;;;;;;;5013673;28;20413;-47
2024/03/28 07:54:09;;;;;;;;;;;;;;;;;;5013822;28;19914;-47
2024/03/28 07:56:35;;;;;;;;;;;;;;;;;;4996120;28;20378;-47
2024/03/28 07:59:01;;;;;;;;;;;;;;;;;;5013486;28;20025;-47
2024/03/28 08:01:27;;;;;;;;;;;;;;;;;;5013328;28;19914;-47
2024/03/28 08:03:53;;;;;;;;;;;;;;;;;;5013018;28;19917;-47
2024/03/28 08:06:19;;;;;;;;;;;;;;;;;;5013008;28;19910;-47
2024/03/28 08:08:45;;;;;;;;;;;;;;;;;;5013330;28;20369;-46
2024/03/28 08:11:11;;;;;;;;;;;;;;;;;;5013448;28;19943;-47
2024/03/28 08:13:39;;;;;;;;;;;;;;;;;;5013339;28;19913;-47
2024/03/28 08:16:06;;;;;;;;;;;;;;;;;;5013283;28;19909;-50
2024/03/28 08:18:32;;;;;;;;;;;;;;;;;;5012991;28;20286;-47
2024/03/28 08:20:59;;;;;;;;;;;;;;;;;;5013114;28;19913;-46
2024/03/28 08:23:25;;;;;;;;;;;;;;;;;;4979284;28;19932;-46
2024/03/28 08:25:51;;;;;;;;;;;;;;;;;;5013120;28;19914;-48
2024/03/28 08:28:18;;;;;;;;;;;;;;;;;;5013141;28;19967;-50
2024/03/28 08:30:44;;;;;;;;;;;;;;;;;;5013108;28;19910;-46
2024/03/28 08:33:10;;;;;;;;;;;;;;;;;;5012934;28;19913;-50
2024/03/28 08:35:36;;;;;;;;;;;;;;;;;;5012989;28;19991;-47
2024/03/28 08:38:02;;;;;;;;;;;;;;;;;;5012759;28;20022;-47
2024/03/28 08:40:28;;;;;;;;;;;;;;;;;;5013093;28;19909;-46
2024/03/28 08:42:54;;;;;;;;;;;;;;;;;;5012704;28;20263;-49
2024/03/28 08:45:20;;;;;;;;;;;;;;;;;;5012813;28;19909;-47
2024/03/28 08:47:46;;;;;;;;;;;;;;;;;;5012317;28;19913;-47
2024/03/28 08:50:13;;;;;;;;;;;;;;;;;;5012546;28;19992;-47
2024/03/28 08:52:39;;;;;;;;;;;;;;;;;;5012721;28;19918;-49
2024/03/28 08:55:05;;;;;;;;;;;;;;;;;;5012783;28;20352;-47
2024/03/28 08:57:32;;;;;;;;;;;;;;;;;;5012596;28;19959;-49
2024/03/28 08:59:58;;;;;;;;;;;;;;;;;;5012667;28;20263;-47
2024/03/28 09:02:24;;;;;;;;;;;;;;;;;;5012269;28;19917;-47
2024/03/28 09:04:50;;;;;;;;;;;;;;;;;;5012105;28;19917;-48
2024/03/28 09:07:16;;;;;;;;;;;;;;;;;;5012265;28;20404;-48
2024/03/28 09:09:42;;;;;;;;;;;;;;;;;;5012448;28;19925;-47
2024/03/28 09:12:08;;;;;;;;;;;;;;;;;;5012351;28;20326;-47
2024/03/28 09:14:35;;;;;;;;;;;;;;;;;;5011758;28;19955;-47
2024/03/28 09:17:01;;;;;;;;;;;;;;;;;;5011841;28;19924;-46
2024/03/28 09:19:28;;;;;;;;;;;;;;;;;;5012151;28;19910;-47
2024/03/28 09:21:54;;;;;;;;;;;;;;;;;;5012137;28;19961;-47
2024/03/28 09:24:21;;;;;;;;;;;;;;;;;;5012202;28;20289;-47
2024/03/28 09:26:48;;;;;;;;;;;;;;;;;;4994707;28;19914;-47
2024/03/28 09:29:19;;;;;;;;;;;;;;;;;;5012253;28;20531;-47
2024/03/28 09:31:48;;;;;;;;;;;;;;;;;;5012064;28;19913;-47
2024/03/28 09:34:14;;;;;;;;;;;;;;;;;;5012194;28;19913;-46
2024/03/28 09:36:41;;;;;;;;;;;;;;;;;;5012147;28;20378;-46
2024/03/28 09:39:07;;;;;;;;;;;;;;;;;;5012007;28;19910;-48
2024/03/28 09:41:33;;;;;;;;;;;;;;;;;;4994366;28;20282;-48
2024/03/28 09:44:00;;;;;;;;;;;;;;;;;;4994559;28;19997;-51
2024/03/28 09:46:26;;;;;;;;;;;;;;;;;;5012145;28;20320;-47
2024/03/28 09:48:52;;;;;;;;;;;;;;;;;;5011899;28;19909;-46
2024/03/28 09:51:18;;;;;;;;;;;;;;;;;;5012014;28;19918;-47
2024/03/28 09:53:44;;;;;;;;;;;;;;;;;;5012116;28;19957;-47
2024/03/28 09:56:10;;;;;;;;;;;;;;;;;;4994511;28;19913;-46
2024/03/28 09:58:38;;;;;;;;;;;;;;;;;;4978036;28;20285;-47
2024/03/28 10:01:04;;;;;;;;;;;;;;;;;;5011724;28;19920;-48
2024/03/28 10:03:30;;;;;;;;;;;;;;;;;;5011879;28;19971;-46
2024/03/28 10:05:56;;;;;;;;;;;;;;;;;;5011974;28;20052;-48
2024/03/28 10:08:22;;;;;;;;;;;;;;;;;;5011694;28;19916;-47
2024/03/28 10:10:48;;;;;;;;;;;;;;;;;;4978140;28;19913;-47
2024/03/28 10:13:14;;;;;;;;;;;;;;;;;;5011720;28;19917;-47
2024/03/28 10:15:41;;;;;;;;;;;;;;;;;;4994161;28;19917;-47
2024/03/28 10:18:07;;;;;;;;;;;;;;;;;;5011565;28;19916;-47
2024/03/28 10:20:35;;;;;;;;;;;;;;;;;;5011912;28;19920;-47
2024/03/28 10:23:01;;;;;;;;;;;;;;;;;;5011574;28;19914;-48
2024/03/28 10:25:27;;;;;;;;;;;;;;;;;;5011731;28;20016;-52
2024/03/28 10:27:53;;;;;;;;;;;;;;;;;;5012301;28;19909;-47
2024/03/28 10:30:20;;;;;;;;;;;;;;;;;;5015150;28;19936;-46
2024/03/28 10:32:46;;;;;;;;;;;;;;;;;;4997431;28;19913;-48
2024/03/28 10:35:12;;;;;;;;;;;;;;;;;;5015284;28;19914;-47
2024/03/28 10:37:38;;;;;;;;;;;;;;;;;;5015108;28;19909;-49
2024/03/28 10:40:04;;;;;;;;;;;;;;;;;;5014996;28;19928;-46
2024/03/28 10:42:30;;;;;;;;;;;;;;;;;;5014950;28;20285;-47
2024/03/28 10:44:59;;;;;;;;;;;;;;;;;;5014754;28;20382;-48
2024/03/28 10:47:25;;;;;;;;;;;;;;;;;;5014786;28;20370;-51
2024/03/28 10:49:51;;;;;;;;;;;;;;;;;;5015220;28;20447;-49
2024/03/28 10:52:17;;;;;;;;;;;;;;;;;;5014737;28;20289;-49
2024/03/28 10:54:45;;;;;;;;;;;;;;;;;;5014773;28;19939;-48
2024/03/28 10:57:11;;;;;;;;;;;;;;;;;;4996998;28;19914;-47
2024/03/28 10:59:37;;;;;;;;;;;;;;;;;;5014601;28;19960;-48
2024/03/28 11:02:03;;;;;;;;;;;;;;;;;;5014770;28;19924;-50
2024/03/28 11:04:29;;;;;;;;;;;;;;;;;;5014540;28;19914;-49
2024/03/28 11:06:55;;;;;;;;;;;;;;;;;;4996942;28;19909;-47
2024/03/28 11:09:23;;;;;;;;;;;;;;;;;;5014288;28;19924;-48
2024/03/28 11:11:49;;;;;;;;;;;;;;;;;;4996698;28;19909;-47
2024/03/28 11:14:15;;;;;;;;;;;;;;;;;;4994869;28;19921;-50
2024/03/28 11:16:41;;;;;;;;;;;;;;;;;;4978894;28;20422;-49
2024/03/28 11:19:07;;;;;;;;;;;;;;;;;;4977545;28;20012;-47
2024/03/28 11:21:33;;;;;;;;;;;;;;;;;;5007314;28;19996;-47
2024/03/28 11:24:00;;;;;;;;;;;;;;;;;;5013641;28;20386;-48
2024/03/28 11:26:26;;;;;;;;;;;;;;;;;;5013972;28;20336;-47
2024/03/28 11:28:52;;;;;;;;;;;;;;;;;;5013816;28;20048;-47
2024/03/28 11:31:18;;;;;;;;;;;;;;;;;;5013953;28;19917;-49
2024/03/28 11:33:44;;;;;;;;;;;;;;;;;;5010964;28;19925;-48
2024/03/28 11:36:10;;;;;;;;;;;;;;;;;;5012422;28;19920;-47
2024/03/28 11:38:36;;;;;;;;;;;;;;;;;;5007345;28;19936;-47
2024/03/28 11:41:03;;;;;;;;;;;;;;;;;;4992642;28;19947;-51
2024/03/28 11:43:29;;;;;;;;;;;;;;;;;;4998524;28;19921;-47
2024/03/28 11:45:55;;;;;;;;;;;;;;;;;;5007996;28;19967;-48
2024/03/28 11:48:21;;;;;;;;;;;;;;;;;;5012052;28;19921;-53
2024/03/28 11:50:47;;;;;;;;;;;;;;;;;;5007926;28;20527;-47
2024/03/28 11:53:13;;;;;;;;;;;;;;;;;;5011997;28;19928;-46
2024/03/28 11:55:39;;;;;;;;;;;;;;;;;;4993754;28;19963;-47
2024/03/28 11:58:05;;;;;;;;;;;;;;;;;;4995999;28;19917;-49
2024/03/28 12:00:31;;;;;;;;;;;;;;;;;;4994341;28;19921;-47
2024/03/28 12:02:57;;;;;;;;;;;;;;;;;;4993348;28;19923;-46
2024/03/28 12:05:23;;;;;;;;;;;;;;;;;;5000127;28;19924;-45
2024/03/28 12:07:50;;;;;;;;;;;;;;;;;;4992302;28;19918;-47
2024/03/28 12:10:16;;;;;;;;;;;;;;;;;;4993125;28;19971;-46
2024/03/28 12:12:42;;;;;;;;;;;;;;;;;;5003912;28;19971;-47
2024/03/28 12:15:08;;;;;;;;;;;;;;;;;;4992644;28;19953;-48
2024/03/28 12:17:35;;;;;;;;;;;;;;;;;;5011744;28;19918;-46
2024/03/28 12:20:01;;;;;;;;;;;;;;;;;;5010240;28;20009;-47
2024/03/28 12:22:27;;;;;;;;;;;;;;;;;;4999573;28;19917;-48
2024/03/28 12:24:57;;;;;;;;;;;;;;;;;;4997854;28;20425;-47
2024/03/28 12:27:23;;;;;;;;;;;;;;;;;;5004074;28;19924;-47
2024/03/28 12:29:49;;;;;;;;;;;;;;;;;;5011335;28;19913;-46
2024/03/28 12:32:15;;;;;;;;;;;;;;;;;;5006114;28;20332;-47
2024/03/28 12:34:41;;;;;;;;;;;;;;;;;;5011398;28;19976;-46
2024/03/28 12:37:08;;;;;;;;;;;;;;;;;;4994847;28;19918;-46
2024/03/28 12:39:34;;;;;;;;;;;;;;;;;;4998127;28;19963;-46
2024/03/28 12:42:00;;;;;;;;;;;;;;;;;;4984896;28;20024;-46
2024/03/28 12:44:27;;;;;;;;;;;;;;;;;;4974145;28;19914;-47
2024/03/28 12:46:53;;;;;;;;;;;;;;;;;;4992805;28;19917;-46
2024/03/28 12:49:19;;;;;;;;;;;;;;;;;;4975786;28;20374;-46
2024/03/28 12:51:45;;;;;;;;;;;;;;;;;;4986980;28;20347;-46
2024/03/28 12:54:12;;;;;;;;;;;;;;;;;;4977365;28;19913;-48
2024/03/28 12:56:38;;;;;;;;;;;;;;;;;;5010640;28;19920;-46
2024/03/28 12:59:04;;;;;;;;;;;;;;;;;;4998195;28;19968;-46
2024/03/28 13:01:30;;;;;;;;;;;;;;;;;;5002608;28;19947;-47
2024/03/28 13:03:57;;;;;;;;;;;;;;;;;;4995727;28;19921;-50
2024/03/28 13:06:23;;;;;;;;;;;;;;;;;;4991528;28;19925;-46
2024/03/28 13:08:49;;;;;;;;;;;;;;;;;;4974159;28;19953;-47
2024/03/28 13:11:15;;;;;;;;;;;;;;;;;;4991348;28;19917;-47
2024/03/28 13:13:42;;;;;;;;;;;;;;;;;;4987243;28;20325;-47
2024/03/28 13:16:09;;;;;;;;;;;;;;;;;;5000598;28;20001;-47
2024/03/28 13:18:35;;;;;;;;;;;;;;;;;;4992320;28;19921;-46
2024/03/28 13:21:01;;;;;;;;;;;;;;;;;;4991131;28;19924;-47
2024/03/28 13:23:27;;;;;;;;;;;;;;;;;;5002702;28;19917;-47
2024/03/28 13:25:53;;;;;;;;;;;;;;;;;;4991131;28;20305;-49
2024/03/28 13:28:19;;;;;;;;;;;;;;;;;;5010362;28;19913;-47
2024/03/28 13:30:45;;;;;;;;;;;;;;;;;;4982628;28;19920;-50
2024/03/28 13:33:11;;;;;;;;;;;;;;;;;;5010670;28;20517;-46
2024/03/28 13:35:37;;;;;;;;;;;;;;;;;;4985786;28;19918;-48
2024/03/28 13:38:04;;;;;;;;;;;;;;;;;;4990817;28;20312;-46
2024/03/28 13:40:30;;;;;;;;;;;;;;;;;;4996661;28;20008;-47
2024/03/28 13:42:56;;;;;;;;;;;;;;;;;;5010480;28;20279;-50
2024/03/28 13:45:23;;;;;;;;;;;;;;;;;;5001196;28;19921;-47
2024/03/28 13:47:49;;;;;;;;;;;;;;;;;;4992772;28;19914;-50
2024/03/28 13:50:15;;;;;;;;;;;;;;;;;;5010555;28;19917;-51
2024/03/28 13:52:41;;;;;;;;;;;;;;;;;;5008836;28;19917;-49
2024/03/28 13:55:07;;;;;;;;;;;;;;;;;;5010407;28;19964;-49
2024/03/28 13:57:33;;;;;;;;;;;;;;;;;;5005444;28;19924;-48
2024/03/28 13:59:59;;;;;;;;;;;;;;;;;;4978628;28;19918;-49
2024/03/28 14:02:25;;;;;;;;;;;;;;;;;;4981541;28;20442;-51
2024/03/28 14:04:51;;;;;;;;;;;;;;;;;;4995618;28;19921;-48
2024/03/28 14:07:17;;;;;;;;;;;;;;;;;;5005193;28;19949;-47
2024/03/28 14:09:43;;;;;;;;;;;;;;;;;;4977177;28;19918;-50
2024/03/28 14:12:09;;;;;;;;;;;;;;;;;;5005943;28;19910;-46
2024/03/28 14:14:36;;;;;;;;;;;;;;;;;;5012448;28;19949;-46
2024/03/28 14:17:02;;;;;;;;;;;;;;;;;;4996848;28;20352;-49
2024/03/28 14:19:28;;;;;;;;;;;;;;;;;;4996302;28;20537;-46
2024/03/28 14:21:54;;;;;;;;;;;;;;;;;;5013736;28;20009;-47
2024/03/28 14:24:21;;;;;;;;;;;;;;;;;;5002365;28;19953;-52
2024/03/28 14:26:47;;;;;;;;;;;;;;;;;;4994176;28;19920;-48
2024/03/28 14:29:13;;;;;;;;;;;;;;;;;;4993973;28;19924;-51
2024/03/28 14:31:40;;;;;;;;;;;;;;;;;;4997350;28;19909;-46
2024/03/28 14:34:06;;;;;;;;;;;;;;;;;;5008732;28;20326;-49
2024/03/28 14:36:32;;;;;;;;;;;;;;;;;;5012886;28;19964;-50
2024/03/28 14:38:58;;;;;;;;;;;;;;;;;;4994524;28;19913;-47
2024/03/28 14:41:24;;;;;;;;;;;;;;;;;;4994750;28;19937;-51
2024/03/28 14:43:50;;;;;;;;;;;;;;;;;;5004698;28;19921;-47
2024/03/28 14:46:19;;;;;;;;;;;;;;;;;;5006023;28;19922;-50
2024/03/28 14:48:45;;;;;;;;;;;;;;;;;;4992924;28;19929;-48
2024/03/28 14:51:12;;;;;;;;;;;;;;;;;;5014176;28;19997;-47
2024/03/28 14:53:38;;;;;;;;;;;;;;;;;;5015091;28;20393;-46
2024/03/28 14:56:07;;;;;;;;;;;;;;;;;;5014890;28;19909;-48
2024/03/28 14:58:35;;;;;;;;;;;;;;;;;;4997198;28;19913;-49
2024/03/28 15:01:01;;;;;;;;;;;;;;;;;;5014568;28;19914;-50
2024/03/28 15:03:27;;;;;;;;;;;;;;;;;;5014495;28;20306;-49
2024/03/28 15:05:53;;;;;;;;;;;;;;;;;;5014644;28;19909;-47
2024/03/28 15:08:19;;;;;;;;;;;;;;;;;;5001802;28;19914;-46
2024/03/28 15:10:45;;;;;;;;;;;;;;;;;;5014589;28;20004;-49
2024/03/28 15:13:11;;;;;;;;;;;;;;;;;;4989260;28;19933;-48
2024/03/28 15:15:37;;;;;;;;;;;;;;;;;;4994954;28;19945;-47
2024/03/28 15:18:07;;;;;;;;;;;;;;;;;;4994753;28;20372;-46
2024/03/28 15:20:33;;;;;;;;;;;;;;;;;;4994971;28;20275;-47
2024/03/28 15:22:59;;;;;;;;;;;;;;;;;;4994681;28;20374;-47
2024/03/28 15:25:25;;;;;;;;;;;;;;;;;;5002361;28;19916;-47
2024/03/28 15:27:52;;;;;;;;;;;;;;;;;;5014043;28;20408;-48
2024/03/28 15:30:18;;;;;;;;;;;;;;;;;;5014146;28;19913;-48
2024/03/28 15:32:44;;;;;;;;;;;;;;;;;;5014312;28;20045;-46
2024/03/28 15:35:10;;;;;;;;;;;;;;;;;;5005208;28;19917;-46
2024/03/28 15:37:37;;;;;;;;;;;;;;;;;;4994440;28;19914;-46
2024/03/28 15:40:04;;;;;;;;;;;;;;;;;;4994434;28;19913;-46
2024/03/28 15:42:31;;;;;;;;;;;;;;;;;;4976679;28;19917;-46
2024/03/28 15:44:57;;;;;;;;;;;;;;;;;;4977064;28;19909;-47
2024/03/28 15:47:23;;;;;;;;;;;;;;;;;;4994135;28;19920;-48
2024/03/28 15:49:49;;;;;;;;;;;;;;;;;;4996238;28;20326;-52
2024/03/28 15:52:16;;;;;;;;;;;;;;;;;;5016889;28;19921;-47
2024/03/28 15:54:42;;;;;;;;;;;;;;;;;;5013776;28;20368;-48
2024/03/28 15:57:08;;;;;;;;;;;;;;;;;;5013683;28;20005;-48
2024/03/28 15:59:34;;;;;;;;;;;;;;;;;;4996048;28;19909;-46
2024/03/28 16:02:00;;;;;;;;;;;;;;;;;;5005177;28;20394;-47
2024/03/28 16:04:26;;;;;;;;;;;;;;;;;;5002262;28;20441;-46
2024/03/28 16:06:52;;;;;;;;;;;;;;;;;;5012844;28;19980;-47
2024/03/28 16:09:18;;;;;;;;;;;;;;;;;;5015749;28;19927;-46
2024/03/28 16:11:44;;;;;;;;;;;;;;;;;;5032272;28;19913;-48
2024/03/28 16:14:10;;;;;;;;;;;;;;;;;;5033061;28;20293;-47
2024/03/28 16:16:37;;;;;;;;;;;;;;;;;;5033153;28;19963;-46
2024/03/28 16:19:03;;;;;;;;;;;;;;;;;;5032958;28;19910;-46
2024/03/28 16:21:29;;;;;;;;;;;;;;;;;;5033043;28;19913;-47
2024/03/28 16:23:55;;;;;;;;;;;;;;;;;;5032772;28;19920;-47
2024/03/28 16:26:21;;;;;;;;;;;;;;;;;;5013742;28;20004;-47
2024/03/28 16:28:47;;;;;;;;;;;;;;;;;;5032569;28;19909;-47
2024/03/28 16:31:13;;;;;;;;;;;;;;;;;;5011832;28;19941;-47
2024/03/28 16:33:39;;;;;;;;;;;;;;;;;;5008287;28;19909;-46
2024/03/28 16:36:05;;;;;;;;;;;;;;;;;;5011566;28;19929;-48
2024/03/28 16:38:31;;;;;;;;;;;;;;;;;;5011151;28;20420;-48
2024/03/28 16:40:58;;;;;;;;;;;;;;;;;;4995095;28;20462;-47
2024/03/28 16:43:24;;;;;;;;;;;;;;;;;;5012076;28;19947;-48